Time;durP1;ratioP1;P1;durP2;ratioP2;P2;SDS_P1;SDS_P2;PMS_P1;PMS_P2;Temp;Humidity;BMP_temperature;BMP_pressure;BME280_temperature;BME280_humidity;BME280_pressure;Samples;Min_cycle;Max_cycle;Signal;HPM_P1;HPM_P2
2024/01/05 00:00:03;;;;;;;6.72;4.68;;;2.10;99.90;;;;;;5054934;28;20631;-64
2024/01/05 00:02:28;;;;;;;6.20;3.72;;;2.10;99.90;;;;;;5055734;28;20063;-65
2024/01/05 00:04:54;;;;;;;6.18;4.35;;;2.10;99.90;;;;;;5049868;28;20115;-64
2024/01/05 00:07:20;;;;;;;6.63;4.90;;;2.10;99.90;;;;;;5057660;28;20087;-64
2024/01/05 00:09:46;;;;;;;6.72;4.55;;;2.10;99.90;;;;;;5052774;28;20455;-64
2024/01/05 00:12:12;;;;;;;13.20;4.65;;;2.10;99.90;;;;;;5060888;28;20072;-64
2024/01/05 00:14:37;;;;;;;6.63;4.70;;;2.10;99.90;;;;;;5053276;28;20401;-64
2024/01/05 00:17:03;;;;;;;6.97;4.07;;;2.10;99.90;;;;;;5056382;28;20067;-64
2024/01/05 00:19:29;;;;;;;7.97;3.53;;;2.10;99.90;;;;;;5058882;28;20530;-64
2024/01/05 00:21:54;;;;;;;4.70;3.08;;;2.10;99.90;;;;;;5059267;28;20041;-64
2024/01/05 00:24:20;;;;;;;5.05;4.50;;;2.10;99.90;;;;;;5056569;28;20056;-64
2024/01/05 00:26:46;;;;;;;5.05;4.03;;;2.10;99.90;;;;;;5053981;28;20028;-64
2024/01/05 00:29:12;;;;;;;5.32;3.08;;;2.10;99.90;;;;;;5060369;28;20044;-64
2024/01/05 00:31:37;;;;;;;6.88;5.00;;;2.10;99.90;;;;;;5058606;28;20115;-64
2024/01/05 00:34:03;;;;;;;9.57;4.53;;;2.10;99.90;;;;;;5055018;28;20105;-64
2024/01/05 00:36:29;;;;;;;6.15;4.32;;;2.10;99.90;;;;;;5058599;28;20123;-64
2024/01/05 00:38:54;;;;;;;6.70;4.80;;;2.10;99.90;;;;;;5060106;28;20169;-64
2024/01/05 00:41:20;;;;;;;8.80;4.40;;;2.10;99.90;;;;;;5059434;28;20159;-64
2024/01/05 00:43:46;;;;;;;5.57;4.80;;;2.10;99.90;;;;;;5055976;28;20055;-64
2024/01/05 00:46:11;;;;;;;10.82;5.85;;;2.10;99.90;;;;;;5040537;28;20090;-64
2024/01/05 00:48:37;;;;;;;5.47;4.20;;;2.10;99.90;;;;;;5053925;28;20486;-64
2024/01/05 00:51:03;;;;;;;10.05;4.65;;;2.10;99.90;;;;;;5056552;28;20398;-64
2024/01/05 00:53:29;;;;;;;7.20;4.57;;;2.10;99.90;;;;;;5058279;28;20398;-64
2024/01/05 00:55:54;;;;;;;7.50;3.85;;;2.10;99.90;;;;;;5063462;28;20079;-64
2024/01/05 00:58:20;;;;;;;6.97;5.00;;;2.00;99.90;;;;;;5057127;28;20619;-64
2024/01/05 01:00:46;;;;;;;6.93;4.63;;;2.10;99.90;;;;;;5079372;28;20451;-64
2024/01/05 01:03:12;;;;;;;7.07;4.40;;;2.10;99.90;;;;;;5072696;28;20043;-65
2024/01/05 01:05:37;;;;;;;8.85;5.13;;;2.00;99.90;;;;;;5084812;28;20040;-64
2024/01/05 01:08:03;;;;;;;6.63;4.88;;;2.00;99.90;;;;;;5077387;28;20499;-64
2024/01/05 01:10:35;;;;;;;6.15;3.83;;;2.10;99.90;;;;;;5065524;28;20044;-64
2024/01/05 01:13:01;;;;;;;9.93;5.35;;;2.10;99.90;;;;;;5068846;28;20071;-64
2024/01/05 01:15:27;;;;;;;9.10;5.05;;;2.10;99.90;;;;;;5081771;28;20259;-64
2024/01/05 01:17:53;;;;;;;13.55;4.97;;;2.10;99.90;;;;;;5084390;28;20033;-64
2024/01/05 01:20:18;;;;;;;8.52;4.97;;;2.10;99.90;;;;;;5070159;28;20039;-64
2024/01/05 01:22:45;;;;;;;6.85;4.28;;;2.10;99.90;;;;;;5079433;28;20505;-64
2024/01/05 01:25:11;;;;;;;7.60;5.18;;;2.00;99.90;;;;;;5084857;28;20043;-64
2024/01/05 01:27:36;;;;;;;8.35;6.00;;;2.00;99.90;;;;;;5082592;28;20047;-64
2024/01/05 01:30:02;;;;;;;11.80;5.07;;;2.10;99.90;;;;;;5046374;28;20507;-64
2024/01/05 01:32:28;;;;;;;8.30;5.45;;;2.10;99.90;;;;;;5061890;28;20041;-64
2024/01/05 01:34:54;;;;;;;6.53;4.85;;;2.00;99.90;;;;;;5063936;28;20323;-65
2024/01/05 01:37:19;;;;;;;7.18;4.18;;;2.00;99.90;;;;;;5085885;28;20044;-64
2024/01/05 01:39:51;;;;;;;8.35;5.22;;;2.10;99.90;;;;;;5080753;28;20531;-64
2024/01/05 01:42:17;;;;;;;7.28;4.45;;;2.00;99.90;;;;;;5067501;28;20047;-64
2024/01/05 01:44:42;;;;;;;7.32;4.75;;;2.10;99.90;;;;;;5072328;28;20052;-64
2024/01/05 01:47:08;;;;;;;8.15;5.65;;;2.00;99.90;;;;;;5082811;28;20051;-64
2024/01/05 01:49:35;;;;;;;5.32;3.75;;;2.00;99.90;;;;;;5065061;28;20413;-64
2024/01/05 01:52:01;;;;;;;11.95;5.25;;;2.00;99.90;;;;;;5066963;28;20075;-65
2024/01/05 01:54:28;;;;;;;8.98;5.30;;;2.00;99.90;;;;;;5081372;28;20054;-64
2024/01/05 01:56:54;;;;;;;7.32;4.97;;;2.00;99.90;;;;;;5053270;28;20106;-64
2024/01/05 01:59:20;;;;;;;10.30;4.63;;;2.00;99.90;;;;;;5059576;28;20512;-64
2024/01/05 02:01:46;;;;;;;9.27;5.22;;;2.00;99.90;;;;;;5056272;28;20040;-64
2024/01/05 02:04:15;;;;;;;9.80;4.63;;;2.00;99.90;;;;;;5062578;28;20045;-65
2024/01/05 02:06:45;;;;;;;7.90;5.00;;;2.00;99.90;;;;;;5055957;28;20076;-64
2024/01/05 02:09:12;;;;;;;9.77;4.68;;;2.00;99.90;;;;;;5060233;28;20097;-64
2024/01/05 02:11:38;;;;;;;9.30;5.10;;;2.00;99.90;;;;;;5059018;28;20048;-65
2024/01/05 02:14:04;;;;;;;9.13;5.88;;;2.00;99.90;;;;;;5057062;28;20041;-65
2024/01/05 02:16:29;;;;;;;10.30;4.85;;;2.00;99.90;;;;;;5059883;28;20102;-64
2024/01/05 02:18:55;;;;;;;7.43;4.97;;;2.00;99.90;;;;;;5059647;28;20040;-64
2024/01/05 02:21:28;;;;;;;7.65;4.85;;;2.00;99.90;;;;;;5058049;28;20245;-65
2024/01/05 02:23:54;;;;;;;8.40;3.55;;;2.00;99.90;;;;;;5061139;28;20548;-64
2024/01/05 02:26:21;;;;;;;10.98;5.43;;;2.10;99.90;;;;;;5060497;28;20036;-65
2024/01/05 02:28:46;;;;;;;7.55;5.22;;;2.00;99.90;;;;;;5059009;28;20438;-64
2024/01/05 02:31:12;;;;;;;8.90;5.53;;;2.00;99.90;;;;;;5062931;28;20036;-65
2024/01/05 02:33:38;;;;;;;8.15;4.75;;;2.10;99.90;;;;;;5061247;28;20454;-64
2024/01/05 02:36:04;;;;;;;9.52;5.65;;;2.00;99.90;;;;;;5054067;28;20063;-65
2024/01/05 02:38:30;;;;;;;8.57;4.78;;;2.00;99.90;;;;;;5057728;28;20039;-64
2024/01/05 02:40:56;;;;;;;10.68;5.40;;;2.00;99.90;;;;;;5058681;28;20040;-64
2024/01/05 02:43:24;;;;;;;9.70;5.35;;;2.00;99.90;;;;;;5057697;28;20060;-64
2024/01/05 02:45:50;;;;;;;8.05;5.50;;;2.10;99.90;;;;;;5060020;28;20627;-65
2024/01/05 02:48:16;;;;;;;7.25;4.90;;;2.00;99.90;;;;;;5059186;28;20114;-64
2024/01/05 02:50:41;;;;;;;8.55;5.50;;;2.10;99.90;;;;;;5060728;28;20466;-64
2024/01/05 02:53:07;;;;;;;9.02;5.00;;;2.00;99.90;;;;;;5054814;28;20037;-64
2024/01/05 02:55:33;;;;;;;7.95;5.05;;;2.00;99.90;;;;;;5057423;28;20167;-64
2024/01/05 02:58:02;;;;;;;10.23;4.60;;;2.00;99.90;;;;;;5055889;28;20609;-65
2024/01/05 03:00:28;;;;;;;11.63;5.70;;;2.00;99.90;;;;;;5055121;28;20072;-65
2024/01/05 03:02:53;;;;;;;10.20;5.25;;;2.00;99.90;;;;;;5056247;28;20442;-64
2024/01/05 03:05:19;;;;;;;10.68;5.13;;;2.00;99.90;;;;;;5057895;28;20585;-64
2024/01/05 03:07:46;;;;;;;12.85;5.60;;;2.10;99.90;;;;;;5058319;28;20072;-65
2024/01/05 03:10:12;;;;;;;11.02;5.07;;;2.00;99.90;;;;;;5057130;28;20045;-64
2024/01/05 03:12:37;;;;;;;8.75;4.88;;;2.10;99.90;;;;;;5061198;28;20050;-65
2024/01/05 03:15:04;;;;;;;7.13;4.38;;;2.10;99.90;;;;;;5055054;28;20048;-65
2024/01/05 03:17:29;;;;;;;6.95;3.40;;;2.00;99.90;;;;;;5061096;28;20409;-65
2024/01/05 03:19:55;;;;;;;7.07;4.13;;;2.00;99.90;;;;;;5056776;28;20037;-65
2024/01/05 03:22:21;;;;;;;10.10;6.10;;;2.00;99.90;;;;;;5050274;28;20045;-65
2024/01/05 03:24:46;;;;;;;8.95;6.00;;;2.00;99.90;;;;;;5059589;28;20036;-64
2024/01/05 03:27:14;;;;;;;5.55;3.72;;;2.00;99.90;;;;;;5054989;28;20119;-65
2024/01/05 03:29:40;;;;;;;12.00;4.68;;;2.00;99.90;;;;;;5057816;28;20093;-65
2024/01/05 03:32:07;;;;;;;9.18;5.25;;;2.00;99.90;;;;;;5052236;28;20045;-64
2024/01/05 03:34:32;;;;;;;5.88;3.83;;;2.00;99.90;;;;;;5059914;28;20105;-65
2024/01/05 03:36:58;;;;;;;9.13;5.68;;;2.00;99.90;;;;;;5060836;28;20044;-64
2024/01/05 03:39:25;;;;;;;7.38;4.57;;;2.00;99.90;;;;;;5060919;28;20581;-64
2024/01/05 03:41:50;;;;;;;10.25;5.13;;;2.00;99.90;;;;;;5058574;28;20047;-65
2024/01/05 03:44:20;;;;;;;7.32;4.50;;;2.00;99.90;;;;;;5059559;28;20052;-64
2024/01/05 03:46:51;;;;;;;14.10;5.37;;;2.10;99.90;;;;;;5057580;28;20047;-64
2024/01/05 03:49:17;;;;;;;5.18;2.53;;;2.10;99.90;;;;;;5054987;28;20082;-65
2024/01/05 03:51:43;;;;;;;11.75;5.28;;;2.00;99.90;;;;;;5057917;28;20503;-64
2024/01/05 03:54:09;;;;;;;9.20;4.82;;;2.00;99.90;;;;;;5055307;28;20052;-65
2024/01/05 03:56:42;;;;;;;11.02;4.85;;;2.10;99.90;;;;;;5052066;28;20057;-65
2024/01/05 03:59:08;;;;;;;9.45;4.78;;;2.10;99.90;;;;;;5062456;28;20051;-64
2024/01/05 04:01:43;;;;;;;10.30;5.82;;;2.10;99.90;;;;;;5057713;28;20072;-64
2024/01/05 04:04:08;;;;;;;15.55;5.18;;;2.10;99.90;;;;;;5057646;28;20041;-65
2024/01/05 04:06:35;;;;;;;11.25;5.50;;;2.10;99.90;;;;;;5053918;28;20490;-65
2024/01/05 04:09:01;;;;;;;8.10;5.20;;;2.10;99.90;;;;;;5060444;28;20048;-65
2024/01/05 04:11:30;;;;;;;9.38;5.40;;;2.10;99.90;;;;;;5055895;28;20668;-64
2024/01/05 04:13:56;;;;;;;9.57;5.13;;;2.10;99.90;;;;;;5057054;28;20093;-65
2024/01/05 04:16:21;;;;;;;12.20;5.93;;;2.10;99.90;;;;;;5060153;28;20057;-65
2024/01/05 04:18:47;;;;;;;8.45;5.30;;;2.20;99.90;;;;;;5053965;28;20049;-64
2024/01/05 04:21:14;;;;;;;17.50;5.43;;;2.20;99.90;;;;;;5060731;28;20045;-65
2024/01/05 04:23:42;;;;;;;15.23;6.35;;;2.10;99.90;;;;;;5054814;28;20452;-65
2024/01/05 04:26:08;;;;;;;13.68;5.53;;;2.20;99.90;;;;;;5059690;28;20122;-65
2024/01/05 04:28:34;;;;;;;12.43;5.85;;;2.10;99.90;;;;;;5062536;28;20112;-65
2024/01/05 04:31:00;;;;;;;13.90;5.20;;;2.10;99.90;;;;;;5042483;28;20101;-65
2024/01/05 04:33:25;;;;;;;10.63;5.45;;;2.20;99.90;;;;;;5059106;28;20050;-64
2024/01/05 04:35:51;;;;;;;9.18;4.75;;;2.10;99.90;;;;;;5064104;28;20051;-64
2024/01/05 04:38:17;;;;;;;12.40;5.78;;;2.10;99.90;;;;;;5060903;28;20163;-64
2024/01/05 04:40:43;;;;;;;17.23;6.03;;;2.20;99.90;;;;;;5055848;28;20083;-64
2024/01/05 04:43:08;;;;;;;15.05;6.30;;;2.20;99.90;;;;;;5059032;28;20138;-64
2024/01/05 04:45:37;;;;;;;10.75;6.32;;;2.20;99.90;;;;;;5062659;28;20048;-65
2024/01/05 04:48:03;;;;;;;13.73;5.05;;;2.30;99.90;;;;;;5058479;28;20041;-64
2024/01/05 04:50:29;;;;;;;10.60;5.32;;;2.20;99.90;;;;;;5060266;28;20123;-64
2024/01/05 04:52:55;;;;;;;16.20;6.70;;;2.20;99.90;;;;;;5064212;28;20363;-64
2024/01/05 04:55:20;;;;;;;8.88;5.35;;;2.20;99.90;;;;;;5059700;28;20546;-64
2024/01/05 04:57:47;;;;;;;17.40;7.20;;;2.30;99.90;;;;;;5071781;28;20153;-64
2024/01/05 05:00:14;;;;;;;15.80;6.97;;;2.30;99.90;;;;;;5083769;28;20046;-64
2024/01/05 05:02:39;;;;;;;11.82;6.10;;;2.30;99.90;;;;;;5068189;28;20413;-64
2024/01/05 05:05:05;;;;;;;8.95;6.30;;;2.30;99.90;;;;;;5061574;28;20036;-64
2024/01/05 05:07:31;;;;;;;10.38;4.97;;;2.30;99.90;;;;;;5067128;28;20536;-64
2024/01/05 05:09:57;;;;;;;10.60;6.15;;;2.30;99.90;;;;;;5067631;28;20499;-64
2024/01/05 05:12:23;;;;;;;10.88;6.20;;;2.30;99.90;;;;;;5077319;28;20048;-65
2024/01/05 05:14:50;;;;;;;16.08;7.40;;;2.30;99.90;;;;;;5065241;28;20072;-65
2024/01/05 05:17:16;;;;;;;6.25;4.38;;;2.30;99.90;;;;;;5082442;28;20055;-65
2024/01/05 05:19:41;;;;;;;9.50;5.72;;;2.30;99.90;;;;;;5084292;28;20040;-65
2024/01/05 05:22:07;;;;;;;16.48;7.30;;;2.40;99.90;;;;;;5085034;28;20048;-65
2024/01/05 05:24:33;;;;;;;8.43;5.43;;;2.30;99.90;;;;;;5078900;28;20071;-65
2024/01/05 05:26:59;;;;;;;11.13;6.45;;;2.30;99.90;;;;;;5078659;28;20087;-65
2024/01/05 05:29:24;;;;;;;8.88;4.32;;;2.30;99.90;;;;;;5063603;28;20631;-64
2024/01/05 05:31:50;;;;;;;15.68;7.85;;;2.30;99.90;;;;;;5081073;28;20036;-65
2024/01/05 05:34:17;;;;;;;9.93;6.50;;;2.30;99.90;;;;;;5082679;28;20496;-64
2024/01/05 05:36:43;;;;;;;13.20;7.20;;;2.30;99.90;;;;;;5084035;28;20078;-64
2024/01/05 05:39:10;;;;;;;10.90;6.63;;;2.30;99.90;;;;;;5077267;28;20056;-66
2024/01/05 05:41:36;;;;;;;12.23;7.32;;;2.40;99.90;;;;;;5075550;28;20056;-65
2024/01/05 05:44:03;;;;;;;11.57;6.60;;;2.30;99.90;;;;;;5059197;28;20445;-65
2024/01/05 05:46:29;;;;;;;8.82;4.40;;;2.30;99.90;;;;;;5073206;28;20048;-65
2024/01/05 05:48:55;;;;;;;11.00;6.80;;;2.30;99.90;;;;;;5079345;28;20494;-65
2024/01/05 05:51:20;;;;;;;16.55;7.40;;;2.30;99.90;;;;;;5060757;28;20050;-65
2024/01/05 05:53:46;;;;;;;10.70;6.72;;;2.30;99.90;;;;;;5084467;28;20048;-65
2024/01/05 05:56:12;;;;;;;3.00;2.78;;;2.40;99.90;;;;;;5078939;28;20063;-66
2024/01/05 05:58:37;;;;;;;10.55;6.68;;;2.30;99.90;;;;;;5082381;28;20055;-65
2024/01/05 06:01:04;;;;;;;12.57;6.60;;;2.30;99.90;;;;;;5079665;28;20541;-65
2024/01/05 06:03:30;;;;;;;4.53;3.13;;;2.30;99.90;;;;;;5080410;28;20482;-65
2024/01/05 06:05:57;;;;;;;8.50;5.28;;;2.30;99.90;;;;;;5077109;28;20051;-65
2024/01/05 06:08:23;;;;;;;14.38;6.72;;;2.30;99.90;;;;;;5060171;28;20039;-66
2024/01/05 06:10:49;;;;;;;12.13;7.30;;;2.50;99.90;;;;;;5082796;28;20382;-65
2024/01/05 06:13:15;;;;;;;17.75;6.07;;;2.40;99.90;;;;;;5068146;28;20040;-65
2024/01/05 06:15:41;;;;;;;16.80;7.15;;;2.40;99.90;;;;;;5064041;28;20062;-65
2024/01/05 06:18:08;;;;;;;14.02;6.78;;;2.40;99.90;;;;;;5080180;28;20040;-66
2024/01/05 06:20:33;;;;;;;13.02;7.07;;;2.40;99.90;;;;;;5060891;28;20359;-65
2024/01/05 06:22:59;;;;;;;10.60;4.97;;;2.40;99.90;;;;;;5080294;28;20049;-65
2024/01/05 06:25:25;;;;;;;14.30;7.70;;;2.40;99.90;;;;;;5077696;28;20528;-65
2024/01/05 06:27:50;;;;;;;10.25;6.65;;;2.40;99.90;;;;;;5079114;28;20052;-66
2024/01/05 06:30:16;;;;;;;9.77;5.95;;;2.40;99.90;;;;;;5061361;28;20047;-65
2024/01/05 06:32:42;;;;;;;9.32;5.78;;;2.40;99.90;;;;;;5072024;28;20127;-66
2024/01/05 06:35:08;;;;;;;10.63;7.10;;;2.40;99.90;;;;;;5076727;28;20040;-65
2024/01/05 06:37:33;;;;;;;11.25;6.70;;;2.40;99.90;;;;;;5081290;28;20043;-65
2024/01/05 06:39:59;;;;;;;9.93;5.15;;;2.40;99.90;;;;;;5059735;28;20550;-65
2024/01/05 06:42:25;;;;;;;6.80;4.50;;;2.40;99.90;;;;;;5066031;28;20036;-65
2024/01/05 06:44:51;;;;;;;11.02;6.22;;;2.50;99.90;;;;;;5080279;28;20051;-65
2024/01/05 06:47:17;;;;;;;8.75;4.95;;;2.50;99.90;;;;;;5075862;28;20049;-65
2024/01/05 06:49:43;;;;;;;9.25;5.55;;;2.40;99.90;;;;;;5080946;28;20043;-65
2024/01/05 06:52:08;;;;;;;9.02;5.97;;;2.50;99.90;;;;;;5079650;28;20062;-65
2024/01/05 06:54:34;;;;;;;9.32;6.00;;;2.50;99.90;;;;;;5076221;28;20509;-65
2024/01/05 06:57:00;;;;;;;7.55;5.28;;;2.50;99.90;;;;;;5047001;28;20048;-65
2024/01/05 06:59:30;;;;;;;7.30;5.00;;;2.40;99.90;;;;;;5055796;28;20036;-65
2024/01/05 07:01:56;;;;;;;6.22;4.85;;;2.50;99.90;;;;;;5063052;28;20502;-65
2024/01/05 07:04:23;;;;;;;11.13;5.70;;;2.50;99.90;;;;;;5058025;28;20182;-65
2024/01/05 07:06:48;;;;;;;6.88;5.25;;;2.60;99.90;;;;;;5079741;28;20421;-65
2024/01/05 07:09:14;;;;;;;7.45;4.97;;;2.60;99.90;;;;;;5056505;28;20059;-65
2024/01/05 07:11:40;;;;;;;5.40;3.70;;;2.60;99.90;;;;;;5057980;28;20044;-65
2024/01/05 07:14:06;;;;;;;5.50;4.45;;;2.60;99.90;;;;;;5080512;28;20044;-65
2024/01/05 07:16:32;;;;;;;8.85;5.72;;;2.50;99.90;;;;;;5074931;28;20051;-65
2024/01/05 07:18:59;;;;;;;7.03;5.10;;;2.50;99.90;;;;;;5076368;28;20059;-65
2024/01/05 07:21:26;;;;;;;7.60;5.13;;;2.50;99.90;;;;;;5069060;28;20274;-65
2024/01/05 07:23:51;;;;;;;8.02;5.40;;;2.60;99.90;;;;;;5075595;28;20063;-65
2024/01/05 07:26:21;;;;;;;7.70;5.22;;;2.50;99.90;;;;;;5074489;28;20127;-65
2024/01/05 07:28:47;;;;;;;7.25;4.50;;;2.60;99.90;;;;;;5077643;28;20071;-65
2024/01/05 07:31:13;;;;;;;7.38;5.35;;;2.60;99.90;;;;;;5072405;28;20078;-65
2024/01/05 07:33:39;;;;;;;11.35;5.72;;;2.60;99.90;;;;;;5076899;28;20045;-65
2024/01/05 07:36:05;;;;;;;5.97;4.68;;;2.60;99.90;;;;;;5074982;28;20137;-65
2024/01/05 07:38:37;;;;;;;9.30;4.88;;;2.60;99.90;;;;;;5068182;28;20452;-65
2024/01/05 07:41:03;;;;;;;7.35;5.72;;;2.60;99.90;;;;;;5078194;28;20174;-65
2024/01/05 07:43:32;;;;;;;8.88;5.88;;;2.60;99.90;;;;;;5077666;28;20490;-65
2024/01/05 07:45:57;;;;;;;7.25;5.32;;;2.60;99.90;;;;;;5077653;28;20040;-65
2024/01/05 07:48:23;;;;;;;10.80;5.32;;;2.60;99.90;;;;;;5079857;28;20057;-65
2024/01/05 07:50:49;;;;;;;9.68;5.85;;;2.70;99.90;;;;;;5078732;28;20468;-65
2024/01/05 07:53:15;;;;;;;8.10;5.03;;;2.60;99.90;;;;;;5049610;28;20047;-65
2024/01/05 07:55:41;;;;;;;8.90;5.78;;;2.70;99.90;;;;;;5078735;28;20402;-65
2024/01/05 07:58:07;;;;;;;10.23;7.10;;;2.60;99.90;;;;;;5076736;28;20502;-65
2024/01/05 08:00:33;;;;;;;11.43;6.07;;;2.70;99.90;;;;;;5064346;28;20052;-65
2024/01/05 08:03:00;;;;;;;8.38;6.03;;;2.60;99.90;;;;;;5060820;28;20048;-65
2024/01/05 08:05:26;;;;;;;16.52;7.60;;;2.70;99.90;;;;;;5075314;28;20422;-65
2024/01/05 08:07:52;;;;;;;7.35;5.63;;;2.70;99.90;;;;;;5083409;28;20042;-65
2024/01/05 08:10:17;;;;;;;8.50;5.90;;;2.70;99.90;;;;;;5083921;28;20512;-65
2024/01/05 08:12:43;;;;;;;8.38;6.38;;;2.70;99.90;;;;;;5060769;28;20548;-65
2024/01/05 08:15:09;;;;;;;6.90;5.38;;;2.70;99.90;;;;;;5078841;28;20063;-65
2024/01/05 08:17:35;;;;;;;19.73;6.80;;;2.80;99.90;;;;;;5062126;28;20290;-65
2024/01/05 08:20:01;;;;;;;9.27;6.22;;;2.80;99.90;;;;;;5081944;28;20047;-65
2024/01/05 08:22:26;;;;;;;8.57;6.50;;;2.70;99.90;;;;;;5080174;28;20044;-65
2024/01/05 08:24:52;;;;;;;13.13;5.97;;;2.80;99.90;;;;;;5083272;28;20048;-65
2024/01/05 08:27:18;;;;;;;9.60;6.68;;;2.80;99.90;;;;;;5080333;28;20052;-65
2024/01/05 08:29:44;;;;;;;9.05;5.93;;;2.80;99.90;;;;;;5066353;28;20035;-65
2024/01/05 08:32:09;;;;;;;9.60;6.38;;;2.80;99.90;;;;;;5078229;28;20169;-65
2024/01/05 08:34:35;;;;;;;11.32;6.20;;;2.80;99.90;;;;;;5074336;28;20410;-65
2024/01/05 08:37:01;;;;;;;10.10;6.28;;;2.80;99.90;;;;;;5078990;28;20044;-65
2024/01/05 08:39:26;;;;;;;8.52;6.60;;;2.80;99.90;;;;;;5080708;28;20040;-65
2024/01/05 08:41:52;;;;;;;9.90;6.60;;;2.80;99.90;;;;;;5082148;28;20040;-65
2024/01/05 08:44:19;;;;;;;12.07;6.70;;;2.90;99.90;;;;;;5063058;28;20056;-65
2024/01/05 08:46:45;;;;;;;7.53;5.93;;;2.90;99.90;;;;;;5075008;28;20033;-65
2024/01/05 08:49:11;;;;;;;5.07;3.72;;;2.90;99.90;;;;;;5081265;28;20092;-65
2024/01/05 08:51:43;;;;;;;10.20;6.70;;;2.90;99.90;;;;;;5077120;28;20048;-65
2024/01/05 08:54:10;;;;;;;7.28;5.60;;;3.00;99.90;;;;;;5080545;28;20135;-65
2024/01/05 08:56:37;;;;;;;8.60;6.25;;;3.00;99.90;;;;;;5042814;28;20052;-65
2024/01/05 08:59:04;;;;;;;6.53;5.28;;;3.00;99.90;;;;;;5078609;28;20052;-65
2024/01/05 09:01:32;;;;;;;14.43;5.95;;;2.90;99.90;;;;;;5067872;28;20126;-65
2024/01/05 09:03:58;;;;;;;9.32;5.78;;;3.00;99.90;;;;;;5079541;28;20119;-65
2024/01/05 09:06:24;;;;;;;10.60;5.75;;;3.00;99.90;;;;;;5062056;28;20117;-64
2024/01/05 09:08:49;;;;;;;9.60;5.65;;;3.00;99.90;;;;;;5065847;28;20036;-65
2024/01/05 09:11:16;;;;;;;9.82;6.13;;;3.00;99.90;;;;;;5080100;28;20045;-65
2024/01/05 09:13:42;;;;;;;7.70;5.25;;;3.00;99.90;;;;;;5059078;28;20044;-65
2024/01/05 09:16:07;;;;;;;9.40;5.82;;;3.00;99.90;;;;;;5078864;28;20131;-65
2024/01/05 09:18:33;;;;;;;3.47;2.50;;;3.10;99.90;;;;;;5078338;28;20124;-65
2024/01/05 09:21:00;;;;;;;7.13;4.63;;;3.10;99.90;;;;;;5080950;28;20122;-66
2024/01/05 09:23:26;;;;;;;7.10;5.25;;;3.10;99.90;;;;;;5056703;28;20048;-65
2024/01/05 09:25:52;;;;;;;7.85;5.03;;;3.10;99.90;;;;;;5076257;28;20332;-65
2024/01/05 09:28:18;;;;;;;7.53;5.10;;;3.20;99.90;;;;;;5058458;28;20054;-65
2024/01/05 09:30:43;;;;;;;7.25;5.43;;;3.20;99.90;;;;;;5074308;28;20044;-65
2024/01/05 09:33:09;;;;;;;13.40;6.28;;;3.20;99.90;;;;;;5080616;28;20116;-65
2024/01/05 09:35:35;;;;;;;9.52;5.70;;;3.20;99.90;;;;;;5060717;28;20181;-64
2024/01/05 09:38:01;;;;;;;11.32;5.70;;;3.20;99.90;;;;;;5048761;28;20051;-65
2024/01/05 09:40:27;;;;;;;5.85;4.60;;;3.30;99.90;;;;;;5078996;28;20716;-65
2024/01/05 09:42:57;;;;;;;8.15;4.60;;;3.30;99.90;;;;;;5064440;28;20133;-65
2024/01/05 09:45:24;;;;;;;4.57;3.67;;;3.20;99.90;;;;;;5079593;28;20580;-65
2024/01/05 09:47:51;;;;;;;3.25;2.95;;;3.20;99.90;;;;;;5073256;28;20041;-65
2024/01/05 09:50:18;;;;;;;6.68;4.20;;;3.30;99.90;;;;;;5080815;28;20544;-65
2024/01/05 09:52:44;;;;;;;6.72;4.97;;;3.30;99.90;;;;;;5077306;28;20044;-65
2024/01/05 09:55:11;;;;;;;9.02;5.22;;;3.40;99.90;;;;;;5062698;28;20091;-65
2024/01/05 09:57:40;;;;;;;5.05;4.53;;;3.30;99.90;;;;;;5081146;28;20105;-65
2024/01/05 10:00:07;;;;;;;2.65;2.45;;;3.40;99.90;;;;;;5080889;28;20048;-65
2024/01/05 10:02:39;;;;;;;10.98;4.97;;;3.40;99.90;;;;;;5077878;28;20047;-65
2024/01/05 10:05:06;;;;;;;5.45;3.75;;;3.40;99.90;;;;;;5078179;28;20043;-65
2024/01/05 10:07:31;;;;;;;8.35;3.50;;;3.40;99.90;;;;;;5080375;28;20478;-65
2024/01/05 10:09:58;;;;;;;7.05;4.50;;;3.50;99.90;;;;;;5081461;28;20048;-65
2024/01/05 10:12:24;;;;;;;8.13;4.13;;;3.40;99.90;;;;;;5039989;28;20113;-65
2024/01/05 10:14:50;;;;;;;7.75;3.45;;;3.40;99.90;;;;;;5076011;28;20343;-65
2024/01/05 10:17:16;;;;;;;8.65;5.07;;;3.40;99.90;;;;;;5078404;28;20050;-65
2024/01/05 10:19:42;;;;;;;2.30;1.70;;;3.50;99.90;;;;;;5077512;28;20093;-65
2024/01/05 10:22:12;;;;;;;6.35;3.65;;;3.40;99.90;;;;;;5076960;28;20036;-65
2024/01/05 10:24:39;;;;;;;6.65;4.20;;;3.50;99.90;;;;;;5077857;28;20051;-65
2024/01/05 10:27:12;;;;;;;7.47;4.45;;;3.50;99.90;;;;;;5077908;28;20040;-65
2024/01/05 10:29:42;;;;;;;7.85;4.82;;;3.50;99.90;;;;;;5078854;28;20063;-65
2024/01/05 10:32:16;;;;;;;5.65;4.50;;;3.50;99.90;;;;;;5077109;28;20044;-65
2024/01/05 10:34:47;;;;;;;7.03;3.97;;;3.60;99.90;;;;;;5076131;28;20040;-65
2024/01/05 10:37:14;;;;;;;7.10;4.10;;;3.50;99.90;;;;;;5081222;28;20545;-65
2024/01/05 10:39:54;;;;;;;11.50;4.72;;;3.50;99.90;;;;;;5073506;28;20048;-65
2024/01/05 10:42:28;;;;;;;8.10;4.35;;;3.50;99.90;;;;;;5077044;28;20051;-65
2024/01/05 10:44:55;;;;;;;7.63;3.85;;;3.50;99.90;;;;;;5056903;28;20048;-65
2024/01/05 10:47:23;;;;;;;3.55;2.97;;;3.60;99.90;;;;;;5074610;28;20119;-65
2024/01/05 10:49:51;;;;;;;10.55;4.20;;;3.50;99.90;;;;;;5056739;28;20037;-65
2024/01/05 10:52:18;;;;;;;2.40;1.67;;;3.50;99.90;;;;;;5039898;28;20109;-65
2024/01/05 10:54:46;;;;;;;7.07;2.63;;;3.60;99.90;;;;;;5072446;28;20039;-65
2024/01/05 10:57:13;;;;;;;7.05;4.07;;;3.60;99.90;;;;;;5076760;28;20044;-65
2024/01/05 10:59:39;;;;;;;6.00;4.00;;;3.70;99.90;;;;;;5077986;28;20133;-65
2024/01/05 11:02:21;;;;;;;6.38;4.03;;;3.60;99.90;;;;;;5076606;28;20443;-66
2024/01/05 11:05:00;;;;;;;8.75;4.53;;;3.70;99.90;;;;;;5063794;28;20036;-65
2024/01/05 11:07:29;;;;;;;4.03;3.45;;;3.70;99.90;;;;;;5079735;28;20065;-65
2024/01/05 11:10:11;;;;;;;5.60;2.88;;;3.70;99.90;;;;;;5077688;28;20115;-65
2024/01/05 11:12:46;;;;;;;8.38;4.28;;;3.80;99.90;;;;;;5083078;28;20044;-66
2024/01/05 11:15:42;;;;;;;7.47;4.40;;;3.70;99.90;;;;;;5078919;28;20516;-65
2024/01/05 11:18:42;;;;;;;10.90;4.90;;;3.80;99.90;;;;;;5058335;28;20055;-66
2024/01/05 11:21:16;;;;;;;5.13;3.45;;;3.70;99.90;;;;;;5083374;28;20057;-65
2024/01/05 11:23:43;;;;;;;4.40;3.42;;;3.80;99.90;;;;;;5079819;28;20408;-65
2024/01/05 11:26:31;;;;;;;9.50;4.18;;;3.80;99.90;;;;;;5081138;28;20411;-65
2024/01/05 11:28:57;;;;;;;10.93;4.65;;;3.80;99.90;;;;;;5079750;28;20584;-65
2024/01/05 11:31:45;;;;;;;12.60;4.13;;;3.80;99.90;;;;;;5074430;28;20115;-65
2024/01/05 11:34:34;;;;;;;6.35;4.30;;;3.80;99.90;;;;;;5079475;28;20050;-65
2024/01/05 11:37:01;;;;;;;3.72;3.30;;;3.80;99.90;;;;;;5077414;28;20478;-65
2024/01/05 11:39:49;;;;;;;4.82;3.30;;;3.80;99.90;;;;;;5076763;28;20082;-65
2024/01/05 11:42:33;;;;;;;4.40;3.22;;;3.80;99.90;;;;;;5072641;28;20587;-65
2024/01/05 11:45:01;;;;;;;9.35;4.20;;;3.90;99.90;;;;;;5076181;28;20051;-65
2024/01/05 11:47:42;;;;;;;5.65;3.33;;;3.90;99.90;;;;;;5079110;28;20505;-65
2024/01/05 11:50:31;;;;;;;5.95;3.53;;;3.90;99.90;;;;;;5060630;28;20490;-65
2024/01/05 11:53:11;;;;;;;6.40;3.50;;;4.00;99.90;;;;;;5077083;28;20326;-65
2024/01/05 11:55:40;;;;;;;5.27;3.17;;;4.00;99.90;;;;;;5075056;28;20330;-65
2024/01/05 11:58:08;;;;;;;3.97;3.10;;;4.10;99.90;;;;;;5075994;28;20435;-65
2024/01/05 12:00:35;;;;;;;3.88;3.15;;;4.10;99.90;;;;;;5079222;28;20046;-65
2024/01/05 12:03:04;;;;;;;6.45;3.75;;;4.10;99.90;;;;;;5071381;28;20260;-65
2024/01/05 12:05:31;;;;;;;4.70;3.67;;;4.20;99.90;;;;;;5052486;28;20127;-65
2024/01/05 12:07:57;;;;;;;4.55;3.53;;;4.10;99.90;;;;;;5049392;28;20478;-65
2024/01/05 12:10:28;;;;;;;4.10;3.13;;;4.10;99.90;;;;;;5077569;28;20072;-65
2024/01/05 12:12:55;;;;;;;4.35;3.95;;;4.10;99.90;;;;;;5076814;28;20039;-65
2024/01/05 12:15:33;;;;;;;6.95;3.40;;;4.00;99.90;;;;;;5076098;28;20500;-65
2024/01/05 12:18:09;;;;;;;5.38;3.60;;;4.00;99.90;;;;;;5060739;28;20518;-65
2024/01/05 12:20:38;;;;;;;5.30;4.15;;;3.90;99.90;;;;;;5063794;28;20048;-65
2024/01/05 12:23:04;;;;;;;5.75;4.30;;;3.90;99.90;;;;;;5070171;28;20516;-65
2024/01/05 12:25:31;;;;;;;4.93;3.75;;;4.00;99.90;;;;;;5076905;28;20030;-65
2024/01/05 12:27:58;;;;;;;5.97;3.90;;;4.00;99.90;;;;;;5053657;28;20338;-65
2024/01/05 12:30:24;;;;;;;8.23;3.72;;;3.90;99.90;;;;;;5065755;28;20101;-65
2024/01/05 12:32:50;;;;;;;4.78;3.67;;;3.90;99.90;;;;;;5075704;28;20048;-65
2024/01/05 12:35:16;;;;;;;5.85;3.88;;;4.00;99.90;;;;;;5045591;28;20077;-65
2024/01/05 12:37:52;;;;;;;5.90;3.97;;;3.90;99.90;;;;;;5072589;28;20047;-65
2024/01/05 12:40:23;;;;;;;5.45;3.72;;;3.90;99.90;;;;;;5074759;28;20059;-65
2024/01/05 12:42:50;;;;;;;8.48;3.80;;;3.90;99.90;;;;;;5074774;28;20089;-65
2024/01/05 12:45:16;;;;;;;5.32;4.00;;;3.80;99.90;;;;;;5077747;28;20086;-65
2024/01/05 12:47:43;;;;;;;3.53;3.20;;;3.80;99.90;;;;;;5081752;28;20044;-65
2024/01/05 12:50:25;;;;;;;4.45;3.47;;;3.90;99.90;;;;;;5080931;28;20093;-65
2024/01/05 12:52:51;;;;;;;5.53;4.07;;;3.80;99.90;;;;;;5080401;28;20378;-65